sensor_id;sensor_type;location;lat;lon;timestamp;pressure;altitude;pressure_sealevel;temperature;humidity
2036;BME280;23642;42.658;23.350;2023-03-25T00:02:07;51754.63;;;-146.31;93.19
2036;BME280;23642;42.658;23.350;2023-03-25T00:04:34;51694.78;;;-146.31;93.60
2036;BME280;23642;42.658;23.350;2023-03-25T00:07:04;51614.31;;;-146.31;93.84
2036;BME280;23642;42.658;23.350;2023-03-25T00:09:32;51554.50;;;-146.31;94.04
2036;BME280;23642;42.658;23.350;2023-03-25T00:11:59;51453.41;;;-146.31;94.23
2036;BME280;23642;42.658;23.350;2023-03-25T00:14:26;51379.13;;;-146.31;94.36
2036;BME280;23642;42.658;23.350;2023-03-25T00:16:53;51383.25;;;-146.31;94.01
2036;BME280;23642;42.658;23.350;2023-03-25T00:19:19;51397.69;;;-146.31;93.47
2036;BME280;23642;42.658;23.350;2023-03-25T00:21:46;51381.19;;;-146.31;93.80
2036;BME280;23642;42.658;23.350;2023-03-25T00:24:15;51321.38;;;-146.31;93.94
2036;BME280;23642;42.658;23.350;2023-03-25T00:26:44;51294.56;;;-146.31;94.24
2036;BME280;23642;42.658;23.350;2023-03-25T00:29:11;51212.03;;;-146.31;94.26
2036;BME280;23642;42.658;23.350;2023-03-25T00:31:38;51255.34;;;-146.31;93.42
2036;BME280;23642;42.658;23.350;2023-03-25T00:34:05;51242.97;;;-146.31;93.94
2036;BME280;23642;42.658;23.350;2023-03-25T00:36:32;51191.41;;;-146.31;93.78
2036;BME280;23642;42.658;23.350;2023-03-25T00:39:03;51193.47;;;-146.31;94.02
2036;BME280;23642;42.658;23.350;2023-03-25T00:41:30;51125.41;;;-146.31;94.80
2036;BME280;23642;42.658;23.350;2023-03-25T00:44:02;51049.06;;;-146.31;95.17
2036;BME280;23642;42.658;23.350;2023-03-25T00:46:31;50958.31;;;-146.31;94.66
2036;BME280;23642;42.658;23.350;2023-03-25T00:48:58;51098.59;;;-146.31;92.49
2036;BME280;23642;42.658;23.350;2023-03-25T00:51:26;51183.16;;;-146.31;91.96
2036;BME280;23642;42.658;23.350;2023-03-25T00:53:56;51209.97;;;-146.31;91.82
2036;BME280;23642;42.658;23.350;2023-03-25T00:56:26;51195.53;;;-146.31;92.76
2036;BME280;23642;42.658;23.350;2023-03-25T00:58:53;51158.41;;;-146.31;92.26
2036;BME280;23642;42.658;23.350;2023-03-25T01:01:23;51220.28;;;-146.31;91.49
2036;BME280;23642;42.658;23.350;2023-03-25T01:03:52;51259.47;;;-146.31;91.76
2036;BME280;23642;42.658;23.350;2023-03-25T01:06:23;51216.16;;;-146.31;92.61
2036;BME280;23642;42.658;23.350;2023-03-25T01:08:53;51238.84;;;-146.31;92.68
2036;BME280;23642;42.658;23.350;2023-03-25T01:11:24;51191.41;;;-146.31;93.36
2036;BME280;23642;42.658;23.350;2023-03-25T01:13:52;51110.97;;;-146.31;94.14
2036;BME280;23642;42.658;23.350;2023-03-25T01:16:19;51080.03;;;-146.31;94.21
2036;BME280;23642;42.658;23.350;2023-03-25T01:18:47;50991.31;;;-146.31;94.87
2036;BME280;23642;42.658;23.350;2023-03-25T01:21:14;50898.50;;;-146.31;95.24
2036;BME280;23642;42.658;23.350;2023-03-25T01:23:41;50844.88;;;-146.31;95.11
2036;BME280;23642;42.658;23.350;2023-03-25T01:26:08;50849.00;;;-146.31;95.04
2036;BME280;23642;42.658;23.350;2023-03-25T01:28:38;50772.69;;;-146.31;95.25
2036;BME280;23642;42.658;23.350;2023-03-25T01:31:06;50766.50;;;-146.31;95.23
2036;BME280;23642;42.658;23.350;2023-03-25T01:33:33;50686.06;;;-146.31;95.82
2036;BME280;23642;42.658;23.350;2023-03-25T01:36:02;50589.13;;;-146.31;96.10
2036;BME280;23642;42.658;23.350;2023-03-25T01:38:33;50510.75;;;-146.31;96.76
2036;BME280;23642;42.658;23.350;2023-03-25T01:41:01;50341.63;;;-146.31;96.83
2036;BME280;23642;42.658;23.350;2023-03-25T01:43:28;50222.00;;;-146.31;97.10
2036;BME280;23642;42.658;23.350;2023-03-25T01:45:56;50172.50;;;-146.31;97.31
2036;BME280;23642;42.658;23.350;2023-03-25T01:48:25;50104.47;;;-146.31;97.04
2036;BME280;23642;42.658;23.350;2023-03-25T01:50:55;50129.22;;;-146.31;96.50
2036;BME280;23642;42.658;23.350;2023-03-25T01:53:27;50147.78;;;-146.31;96.54
2036;BME280;23642;42.658;23.350;2023-03-25T01:55:55;50075.59;;;-146.31;96.81
2036;BME280;23642;42.658;23.350;2023-03-25T01:58:24;50036.41;;;-146.31;96.81
2036;BME280;23642;42.658;23.350;2023-03-25T02:00:53;49991.03;;;-146.31;96.78
2036;BME280;23642;42.658;23.350;2023-03-25T02:03:20;49999.28;;;-146.31;96.59
2036;BME280;23642;42.658;23.350;2023-03-25T02:05:52;50036.41;;;-146.31;96.32
2036;BME280;23642;42.658;23.350;2023-03-25T02:08:22;50046.72;;;-146.31;96.19
2036;BME280;23642;42.658;23.350;2023-03-25T02:10:51;50057.03;;;-146.31;95.94
2036;BME280;23642;42.658;23.350;2023-03-25T02:13:19;50046.72;;;-146.31;96.41
2036;BME280;23642;42.658;23.350;2023-03-25T02:16:19;49937.44;;;-146.31;96.79
2036;BME280;23642;42.658;23.350;2023-03-25T02:18:58;49908.56;;;-146.31;96.91
2036;BME280;23642;42.658;23.350;2023-03-25T02:21:48;49846.69;;;-146.31;97.19
2036;BME280;23642;42.658;23.350;2023-03-25T02:27:53;49562.16;;;-146.31;98.41
2036;BME280;23642;42.658;23.350;2023-03-25T02:30:40;49461.13;;;-146.31;98.39
2036;BME280;23642;42.658;23.350;2023-03-25T02:33:36;49333.28;;;-146.31;99.01
2036;BME280;23642;42.658;23.350;2023-03-25T02:36:30;49240.53;;;-146.31;99.04
2036;BME280;23642;42.658;23.350;2023-03-25T02:39:10;49176.59;;;-146.31;99.22
2036;BME280;23642;42.658;23.350;2023-03-25T02:41:42;49156.00;;;-146.31;99.01
2036;BME280;23642;42.658;23.350;2023-03-25T02:44:15;49071.47;;;-146.31;99.33
2036;BME280;23642;42.658;23.350;2023-03-25T02:46:48;48923.03;;;-146.31;99.75
2036;BME280;23642;42.658;23.350;2023-03-25T02:49:21;48838.53;;;-146.31;100.00
2036;BME280;23642;42.658;23.350;2023-03-25T02:51:52;48803.47;;;-146.31;99.97
2036;BME280;23642;42.658;23.350;2023-03-25T02:54:23;48766.38;;;-146.31;99.84
2036;BME280;23642;42.658;23.350;2023-03-25T02:56:53;48659.19;;;-146.31;99.98
2036;BME280;23642;42.658;23.350;2023-03-25T02:59:22;48653.00;;;-146.31;100.00
2036;BME280;23642;42.658;23.350;2023-03-25T03:01:53;48609.72;;;-146.31;100.00
2036;BME280;23642;42.658;23.350;2023-03-25T03:04:23;48671.53;;;-146.31;99.21
2036;BME280;23642;42.658;23.350;2023-03-25T03:06:49;48797.28;;;-146.31;98.57
2036;BME280;23642;42.658;23.350;2023-03-25T03:09:24;48762.25;;;-146.31;98.96
2036;BME280;23642;42.658;23.350;2023-03-25T03:12:00;48702.47;;;-146.31;99.39
2036;BME280;23642;42.658;23.350;2023-03-25T03:14:48;48712.78;;;-146.31;98.71
2036;BME280;23642;42.658;23.350;2023-03-25T03:17:24;48774.63;;;-146.31;98.61
2036;BME280;23642;42.658;23.350;2023-03-25T03:19:58;48751.94;;;-146.31;98.37
2036;BME280;23642;42.658;23.350;2023-03-25T03:22:38;48735.44;;;-146.31;99.05
2036;BME280;23642;42.658;23.350;2023-03-25T03:25:18;48599.41;;;-146.31;99.83
2036;BME280;23642;42.658;23.350;2023-03-25T03:27:48;48519.00;;;-146.31;100.00
2036;BME280;23642;42.658;23.350;2023-03-25T03:30:21;48405.66;;;-146.31;100.00
2036;BME280;23642;42.658;23.350;2023-03-25T03:32:54;48292.28;;;-146.31;100.00
2036;BME280;23642;42.658;23.350;2023-03-25T03:35:26;48232.50;;;-146.31;100.00
2036;BME280;23642;42.658;23.350;2023-03-25T03:37:56;48145.94;;;-146.31;100.00
2036;BME280;23642;42.658;23.350;2023-03-25T03:40:28;48102.66;;;-146.31;100.00
2036;BME280;23642;42.658;23.350;2023-03-25T03:42:58;48098.56;;;-146.31;100.00
2036;BME280;23642;42.658;23.350;2023-03-25T03:45:30;48012.00;;;-146.31;100.00
2036;BME280;23642;42.658;23.350;2023-03-25T03:48:01;47933.69;;;-146.31;100.00
2036;BME280;23642;42.658;23.350;2023-03-25T03:50:33;47882.16;;;-146.31;100.00
2036;BME280;23642;42.658;23.350;2023-03-25T03:53:07;47861.53;;;-146.31;100.00
2036;BME280;23642;42.658;23.350;2023-03-25T03:55:39;47904.81;;;-146.31;100.00
2036;BME280;23642;42.658;23.350;2023-03-25T03:58:09;47919.25;;;-146.31;100.00
2036;BME280;23642;42.658;23.350;2023-03-25T04:00:43;47840.94;;;-146.31;100.00
2036;BME280;23642;42.658;23.350;2023-03-25T04:03:17;47748.22;;;-146.31;100.00
2036;BME280;23642;42.658;23.350;2023-03-25T04:05:52;47653.41;;;-146.31;100.00
2036;BME280;23642;42.658;23.350;2023-03-25T04:08:25;47612.19;;;-146.31;100.00
2036;BME280;23642;42.658;23.350;2023-03-25T04:10:58;47577.16;;;-146.31;100.00
2036;BME280;23642;42.658;23.350;2023-03-25T04:13:33;47505.03;;;-146.31;100.00
2036;BME280;23642;42.658;23.350;2023-03-25T04:16:02;47404.06;;;-146.31;100.00
2036;BME280;23642;42.658;23.350;2023-03-25T04:18:29;47286.63;;;-146.31;100.00
2036;BME280;23642;42.658;23.350;2023-03-25T04:20:58;47270.16;;;-146.31;100.00
2036;BME280;23642;42.658;23.350;2023-03-25T04:23:25;47239.25;;;-146.31;100.00
2036;BME280;23642;42.658;23.350;2023-03-25T04:25:56;47257.78;;;-146.31;100.00
2036;BME280;23642;42.658;23.350;2023-03-25T04:28:27;47241.31;;;-146.31;100.00
2036;BME280;23642;42.658;23.350;2023-03-25T04:30:54;47187.72;;;-146.31;100.00
2036;BME280;23642;42.658;23.350;2023-03-25T04:33:22;47165.06;;;-146.31;100.00
2036;BME280;23642;42.658;23.350;2023-03-25T04:35:49;47117.69;;;-146.31;100.00
2036;BME280;23642;42.658;23.350;2023-03-25T04:38:16;47049.69;;;-146.31;100.00
2036;BME280;23642;42.658;23.350;2023-03-25T04:40:43;47031.13;;;-146.31;100.00
2036;BME280;23642;42.658;23.350;2023-03-25T04:43:12;47051.75;;;-146.31;100.00
2036;BME280;23642;42.658;23.350;2023-03-25T04:45:38;47006.41;;;-146.31;100.00
2036;BME280;23642;42.658;23.350;2023-03-25T04:48:10;47101.19;;;-146.31;100.00
2036;BME280;23642;42.658;23.350;2023-03-25T04:50:44;47113.56;;;-146.31;100.00
2036;BME280;23642;42.658;23.350;2023-03-25T04:53:12;47198.03;;;-146.31;100.00
2036;BME280;23642;42.658;23.350;2023-03-25T04:55:39;47220.69;;;-146.31;100.00
2036;BME280;23642;42.658;23.350;2023-03-25T04:58:14;47319.59;;;-146.31;100.00
2036;BME280;23642;42.658;23.350;2023-03-25T05:00:42;47577.16;;;-146.31;98.71
2036;BME280;23642;42.658;23.350;2023-03-25T05:03:09;47711.13;;;-146.31;98.32
2036;BME280;23642;42.658;23.350;2023-03-25T05:05:37;47822.38;;;-146.31;97.77
2036;BME280;23642;42.658;23.350;2023-03-25T05:08:04;47861.53;;;-146.31;97.83
2036;BME280;23642;42.658;23.350;2023-03-25T05:10:30;47923.38;;;-146.31;97.58
2036;BME280;23642;42.658;23.350;2023-03-25T05:12:59;48018.19;;;-146.31;96.78
2036;BME280;23642;42.658;23.350;2023-03-25T05:15:29;48139.78;;;-146.31;95.71
2036;BME280;23642;42.658;23.350;2023-03-25T05:17:57;48331.44;;;-146.31;94.43
2036;BME280;23642;42.658;23.350;2023-03-25T05:20:23;48413.91;;;-146.31;93.94
2036;BME280;23642;42.658;23.350;2023-03-25T05:22:50;48539.63;;;-146.31;92.97
2036;BME280;23642;42.658;23.350;2023-03-25T05:25:22;48661.25;;;-146.31;92.21
2036;BME280;23642;42.658;23.350;2023-03-25T05:27:49;48770.50;;;-146.31;91.19
2036;BME280;23642;42.658;23.350;2023-03-25T05:30:15;48927.16;;;-146.31;89.91
2036;BME280;23642;42.658;23.350;2023-03-25T05:32:44;49032.28;;;-146.31;88.58
2036;BME280;23642;42.658;23.350;2023-03-25T05:35:15;49219.91;;;-146.31;87.43
2036;BME280;23642;42.658;23.350;2023-03-25T05:37:42;49347.72;;;-146.31;86.26
2036;BME280;23642;42.658;23.350;2023-03-25T05:40:10;49442.56;;;-146.31;85.66
2036;BME280;23642;42.658;23.350;2023-03-25T05:42:37;49520.91;;;-146.31;85.09
2036;BME280;23642;42.658;23.350;2023-03-25T05:45:13;49609.56;;;-146.31;84.16
2036;BME280;23642;42.658;23.350;2023-03-25T05:47:41;49673.50;;;-146.31;83.30
2036;BME280;23642;42.658;23.350;2023-03-25T05:50:10;49824.03;;;-146.31;81.72
2036;BME280;23642;42.658;23.350;2023-03-25T05:52:36;49962.19;;;-146.31;80.46
2036;BME280;23642;42.658;23.350;2023-03-25T05:55:08;50034.34;;;-146.31;80.44
2036;BME280;23642;42.658;23.350;2023-03-25T05:57:35;50083.84;;;-146.31;79.78
2036;BME280;23642;42.658;23.350;2023-03-25T06:00:03;50180.75;;;-146.31;77.92
2036;BME280;23642;42.658;23.350;2023-03-25T06:02:32;50312.75;;;-146.31;77.09
2036;BME280;23642;42.658;23.350;2023-03-25T06:05:00;50368.44;;;-146.31;75.35
2036;BME280;23642;42.658;23.350;2023-03-25T06:07:28;50453.00;;;-146.31;72.73
2036;BME280;23642;42.658;23.350;2023-03-25T06:09:59;50543.75;;;-146.31;72.33
2036;BME280;23642;42.658;23.350;2023-03-25T06:12:26;50576.75;;;-146.31;72.05
2036;BME280;23642;42.658;23.350;2023-03-25T06:14:54;50607.69;;;-146.31;72.34
2036;BME280;23642;42.658;23.350;2023-03-25T06:17:22;50667.50;;;-146.31;71.41
2036;BME280;23642;42.658;23.350;2023-03-25T06:19:49;50770.63;;;-146.31;69.00
2036;BME280;23642;42.658;23.350;2023-03-25T06:22:17;50857.25;;;-146.31;68.29
2036;BME280;23642;42.658;23.350;2023-03-25T06:24:56;50915.00;;;-146.31;67.18
2036;BME280;23642;42.658;23.350;2023-03-25T06:27:23;50960.38;;;-146.31;67.03
2036;BME280;23642;42.658;23.350;2023-03-25T06:29:51;51047.00;;;-146.31;65.43
2036;BME280;23642;42.658;23.350;2023-03-25T06:32:18;51113.03;;;-146.31;65.36
2036;BME280;23642;42.658;23.350;2023-03-25T06:34:44;51146.03;;;-146.31;65.35
2036;BME280;23642;42.658;23.350;2023-03-25T06:37:11;51179.03;;;-146.31;65.63
2036;BME280;23642;42.658;23.350;2023-03-25T06:39:40;51183.16;;;-146.31;65.75
2036;BME280;23642;42.658;23.350;2023-03-25T06:42:15;51203.78;;;-146.31;65.43
2036;BME280;23642;42.658;23.350;2023-03-25T06:44:42;51212.03;;;-146.31;66.23
2036;BME280;23642;42.658;23.350;2023-03-25T06:47:09;51216.16;;;-146.31;65.82
2036;BME280;23642;42.658;23.350;2023-03-25T06:49:35;51257.41;;;-146.31;66.15
2036;BME280;23642;42.658;23.350;2023-03-25T06:52:02;51236.78;;;-146.31;66.27
2036;BME280;23642;42.658;23.350;2023-03-25T06:54:29;51207.91;;;-146.31;67.59
2036;BME280;23642;42.658;23.350;2023-03-25T06:56:56;51216.16;;;-146.31;67.10
2036;BME280;23642;42.658;23.350;2023-03-25T06:59:24;51267.75;;;-146.31;65.76
2036;BME280;23642;42.658;23.350;2023-03-25T07:01:51;51282.19;;;-146.31;65.05
2036;BME280;23642;42.658;23.350;2023-03-25T07:04:18;51280.13;;;-146.31;65.33
2036;BME280;23642;42.658;23.350;2023-03-25T07:06:45;51344.06;;;-146.31;65.20
2036;BME280;23642;42.658;23.350;2023-03-25T07:09:14;51331.69;;;-146.31;65.26
2036;BME280;23642;42.658;23.350;2023-03-25T07:11:40;51329.63;;;-146.31;64.87
2036;BME280;23642;42.658;23.350;2023-03-25T07:14:07;51290.44;;;-146.31;65.25
2036;BME280;23642;42.658;23.350;2023-03-25T07:16:36;51306.94;;;-146.31;64.70
2036;BME280;23642;42.658;23.350;2023-03-25T07:19:02;51370.88;;;-146.31;64.41
2036;BME280;23642;42.658;23.350;2023-03-25T07:21:29;51321.38;;;-146.31;65.36
2036;BME280;23642;42.658;23.350;2023-03-25T07:23:56;51315.19;;;-146.31;65.27
2036;BME280;23642;42.658;23.350;2023-03-25T07:26:23;51352.31;;;-146.31;64.23
2036;BME280;23642;42.658;23.350;2023-03-25T07:28:50;51385.31;;;-146.31;63.38
2036;BME280;23642;42.658;23.350;2023-03-25T07:31:16;51414.22;;;-146.31;63.00
2036;BME280;23642;42.658;23.350;2023-03-25T07:33:45;51348.19;;;-146.31;63.63
2036;BME280;23642;42.658;23.350;2023-03-25T07:36:12;51321.38;;;-146.31;63.80
2036;BME280;23642;42.658;23.350;2023-03-25T07:38:39;51368.81;;;-146.31;62.10
2036;BME280;23642;42.658;23.350;2023-03-25T07:41:07;51331.69;;;-146.31;61.21
2036;BME280;23642;42.658;23.350;2023-03-25T07:43:35;51346.13;;;-146.31;59.81
2036;BME280;23642;42.658;23.350;2023-03-25T07:46:02;51428.66;;;-146.31;59.72
2036;BME280;23642;42.658;23.350;2023-03-25T07:48:29;51490.53;;;-146.31;59.99
2036;BME280;23642;42.658;23.350;2023-03-25T07:50:57;51451.34;;;-146.31;59.93
2036;BME280;23642;42.658;23.350;2023-03-25T07:53:24;51410.06;;;-146.31;59.39
2036;BME280;23642;42.658;23.350;2023-03-25T07:56:02;51447.22;;;-146.31;59.05
2036;BME280;23642;42.658;23.350;2023-03-25T07:58:29;51463.72;;;-146.31;58.93
2036;BME280;23642;42.658;23.350;2023-03-25T08:00:56;51500.84;;;-146.31;58.68
2036;BME280;23642;42.658;23.350;2023-03-25T08:03:22;51533.84;;;-146.31;58.45
2036;BME280;23642;42.658;23.350;2023-03-25T08:05:49;51515.28;;;-146.31;58.83
2036;BME280;23642;42.658;23.350;2023-03-25T08:08:18;51564.81;;;-146.31;57.66
2036;BME280;23642;42.658;23.350;2023-03-25T08:10:45;51544.19;;;-146.31;57.88
2036;BME280;23642;42.658;23.350;2023-03-25T08:13:12;51546.25;;;-146.31;57.54
2036;BME280;23642;42.658;23.350;2023-03-25T08:15:39;51548.31;;;-146.31;56.73
2036;BME280;23642;42.658;23.350;2023-03-25T08:18:06;51665.91;;;-146.31;56.96
2036;BME280;23642;42.658;23.350;2023-03-25T08:20:33;51616.38;;;-146.31;56.70
2036;BME280;23642;42.658;23.350;2023-03-25T08:23:01;51558.63;;;-146.31;56.47
2036;BME280;23642;42.658;23.350;2023-03-25T08:25:29;51525.59;;;-146.31;54.51
2036;BME280;23642;42.658;23.350;2023-03-25T08:27:56;51649.41;;;-146.31;53.93
2036;BME280;23642;42.658;23.350;2023-03-25T08:30:23;51606.06;;;-146.31;52.02
2036;BME280;23642;42.658;23.350;2023-03-25T08:32:50;51601.94;;;-146.31;52.01
2036;BME280;23642;42.658;23.350;2023-03-25T08:35:19;51622.56;;;-146.31;50.76
2036;BME280;23642;42.658;23.350;2023-03-25T08:37:47;51723.66;;;-146.31;49.30
2036;BME280;23642;42.658;23.350;2023-03-25T08:40:14;51847.47;;;-146.31;50.02
2036;BME280;23642;42.658;23.350;2023-03-25T08:42:43;51892.84;;;-146.31;49.48
2036;BME280;23642;42.658;23.350;2023-03-25T08:45:11;51876.34;;;-146.31;49.69
2036;BME280;23642;42.658;23.350;2023-03-25T08:47:39;51967.13;;;-146.31;49.36
2036;BME280;23642;42.658;23.350;2023-03-25T08:50:07;51930.00;;;-146.31;48.71
2036;BME280;23642;42.658;23.350;2023-03-25T08:52:34;51983.63;;;-146.31;47.94
2036;BME280;23642;42.658;23.350;2023-03-25T08:55:01;52093.00;;;-146.31;47.93
2036;BME280;23642;42.658;23.350;2023-03-25T08:57:28;52167.28;;;-146.31;47.86
2036;BME280;23642;42.658;23.350;2023-03-25T08:59:56;52185.84;;;-146.31;48.31
2036;BME280;23642;42.658;23.350;2023-03-25T09:02:23;52301.41;;;-146.31;48.08
2036;BME280;23642;42.658;23.350;2023-03-25T09:04:50;52363.31;;;-146.31;48.90
2036;BME280;23642;42.658;23.350;2023-03-25T09:07:16;52416.97;;;-146.31;49.31
2036;BME280;23642;42.658;23.350;2023-03-25T09:09:44;52466.50;;;-146.31;49.27
2036;BME280;23642;42.658;23.350;2023-03-25T09:12:11;52406.66;;;-146.31;48.94
2036;BME280;23642;42.658;23.350;2023-03-25T09:14:38;52454.09;;;-146.31;48.42
2036;BME280;23642;42.658;23.350;2023-03-25T09:17:06;52449.97;;;-146.31;48.20
2036;BME280;23642;42.658;23.350;2023-03-25T09:19:34;52429.34;;;-146.31;47.92
2036;BME280;23642;42.658;23.350;2023-03-25T09:22:02;52427.28;;;-146.31;47.30
2036;BME280;23642;42.658;23.350;2023-03-25T09:24:29;52369.50;;;-146.31;47.63
2036;BME280;23642;42.658;23.350;2023-03-25T09:26:58;52400.47;;;-146.31;47.05
2036;BME280;23642;42.658;23.350;2023-03-25T09:29:25;52487.13;;;-146.31;46.57
2036;BME280;23642;42.658;23.350;2023-03-25T09:31:52;52433.47;;;-146.31;47.30
2036;BME280;23642;42.658;23.350;2023-03-25T09:34:20;52503.63;;;-146.31;47.59
2036;BME280;23642;42.658;23.350;2023-03-25T09:36:47;52623.34;;;-146.31;47.50
2036;BME280;23642;42.658;23.350;2023-03-25T09:39:13;52602.69;;;-146.31;47.24
2036;BME280;23642;42.658;23.350;2023-03-25T09:41:50;52633.66;;;-146.31;47.29
2036;BME280;23642;42.658;23.350;2023-03-25T09:44:24;52532.53;;;-146.31;47.78
2036;BME280;23642;42.658;23.350;2023-03-25T09:46:55;52476.81;;;-146.31;47.38
2036;BME280;23642;42.658;23.350;2023-03-25T09:49:33;52404.59;;;-146.31;46.19
2036;BME280;23642;42.658;23.350;2023-03-25T09:52:03;52423.16;;;-146.31;44.86
2036;BME280;23642;42.658;23.350;2023-03-25T09:54:33;52478.88;;;-146.31;43.98
2036;BME280;23642;42.658;23.350;2023-03-25T09:57:05;52565.53;;;-146.31;44.51
2036;BME280;23642;42.658;23.350;2023-03-25T09:59:39;52637.78;;;-146.31;42.69
2036;BME280;23642;42.658;23.350;2023-03-25T10:02:17;52691.44;;;-146.31;42.67
2036;BME280;23642;42.658;23.350;2023-03-25T10:05:09;52740.97;;;-146.31;42.36
2036;BME280;23642;42.658;23.350;2023-03-25T10:07:44;52780.19;;;-146.31;41.67
2036;BME280;23642;42.658;23.350;2023-03-25T10:10:20;52833.84;;;-146.31;41.67
2036;BME280;23642;42.658;23.350;2023-03-25T10:12:54;52963.88;;;-146.31;42.05
2036;BME280;23642;42.658;23.350;2023-03-25T10:15:31;52899.88;;;-146.31;41.29
2036;BME280;23642;42.658;23.350;2023-03-25T10:18:13;52990.69;;;-146.31;41.17
2036;BME280;23642;42.658;23.350;2023-03-25T10:20:50;52937.03;;;-146.31;40.57
2036;BME280;23642;42.658;23.350;2023-03-25T10:23:23;53052.63;;;-146.31;39.34
2036;BME280;23642;42.658;23.350;2023-03-25T10:25:56;53155.81;;;-146.31;39.20
2036;BME280;23642;42.658;23.350;2023-03-25T10:28:27;53341.59;;;-146.31;38.73
2036;BME280;23642;42.658;23.350;2023-03-25T10:30:54;53273.47;;;-146.31;38.45
2036;BME280;23642;42.658;23.350;2023-03-25T10:33:28;53333.31;;;-146.31;38.06
2036;BME280;23642;42.658;23.350;2023-03-25T10:36:00;53341.59;;;-146.31;37.39
2036;BME280;23642;42.658;23.350;2023-03-25T10:38:29;53294.09;;;-146.31;37.53
2036;BME280;23642;42.658;23.350;2023-03-25T10:41:10;53413.84;;;-146.31;37.56
2036;BME280;23642;42.658;23.350;2023-03-25T10:43:41;53469.56;;;-146.31;37.22
2036;BME280;23642;42.658;23.350;2023-03-25T10:46:13;53481.94;;;-146.31;37.34
2036;BME280;23642;42.658;23.350;2023-03-25T10:48:41;53568.66;;;-146.31;37.89
2036;BME280;23642;42.658;23.350;2023-03-25T10:51:11;53572.78;;;-146.31;37.39
2036;BME280;23642;42.658;23.350;2023-03-25T10:53:39;53506.72;;;-146.31;37.08
2036;BME280;23642;42.658;23.350;2023-03-25T10:56:10;53552.13;;;-146.31;36.95
2036;BME280;23642;42.658;23.350;2023-03-25T10:58:39;53572.78;;;-146.31;37.27
2036;BME280;23642;42.658;23.350;2023-03-25T11:01:10;53554.19;;;-146.31;36.42
2036;BME280;23642;42.658;23.350;2023-03-25T11:03:39;53595.47;;;-146.31;36.95
2036;BME280;23642;42.658;23.350;2023-03-25T11:06:19;53564.53;;;-146.31;37.12
2036;BME280;23642;42.658;23.350;2023-03-25T11:09:15;53539.75;;;-146.31;37.12
2036;BME280;23642;42.658;23.350;2023-03-25T11:11:45;53426.22;;;-146.31;36.66
2036;BME280;23642;42.658;23.350;2023-03-25T11:14:12;53453.06;;;-146.31;36.72
2036;BME280;23642;42.658;23.350;2023-03-25T11:16:41;53523.22;;;-146.31;36.41
2036;BME280;23642;42.658;23.350;2023-03-25T11:19:17;53539.75;;;-146.31;36.99
2036;BME280;23642;42.658;23.350;2023-03-25T11:21:47;53570.72;;;-146.31;37.46
2036;BME280;23642;42.658;23.350;2023-03-25T11:24:18;53591.34;;;-146.31;37.70
2036;BME280;23642;42.658;23.350;2023-03-25T11:26:48;53609.94;;;-146.31;37.98
2036;BME280;23642;42.658;23.350;2023-03-25T11:29:18;53620.25;;;-146.31;38.12
2036;BME280;23642;42.658;23.350;2023-03-25T11:31:55;53663.59;;;-146.31;38.23
2036;BME280;23642;42.658;23.350;2023-03-25T11:34:23;53587.22;;;-146.31;37.29
2036;BME280;23642;42.658;23.350;2023-03-25T11:36:54;53640.91;;;-146.31;37.09
2036;BME280;23642;42.658;23.350;2023-03-25T11:39:28;53661.53;;;-146.31;37.32
2036;BME280;23642;42.658;23.350;2023-03-25T11:41:56;53545.94;;;-146.31;36.69
2036;BME280;23642;42.658;23.350;2023-03-25T11:44:25;53535.63;;;-146.31;36.53
2036;BME280;23642;42.658;23.350;2023-03-25T11:46:56;53477.81;;;-146.31;35.89
2036;BME280;23642;42.658;23.350;2023-03-25T11:49:25;53463.38;;;-146.31;35.49
2036;BME280;23642;42.658;23.350;2023-03-25T11:51:59;53389.06;;;-146.31;34.84
2036;BME280;23642;42.658;23.350;2023-03-25T11:54:27;53298.25;;;-146.31;34.69
2036;BME280;23642;42.658;23.350;2023-03-25T11:56:54;53316.81;;;-146.31;34.31
2036;BME280;23642;42.658;23.350;2023-03-25T11:59:23;53358.09;;;-146.31;32.98
2036;BME280;23642;42.658;23.350;2023-03-25T12:01:59;53333.31;;;-146.31;33.02
2036;BME280;23642;42.658;23.350;2023-03-25T12:04:29;53640.91;;;-146.31;33.25
2036;BME280;23642;42.658;23.350;2023-03-25T12:07:00;53758.56;;;-146.31;34.22
2036;BME280;23642;42.658;23.350;2023-03-25T12:09:36;53775.09;;;-146.31;34.13
2036;BME280;23642;42.658;23.350;2023-03-25T12:12:32;53758.56;;;-146.31;34.02
2036;BME280;23642;42.658;23.350;2023-03-25T12:15:07;53936.13;;;-146.31;34.73
2036;BME280;23642;42.658;23.350;2023-03-25T12:17:50;53981.53;;;-146.31;35.17
2036;BME280;23642;42.658;23.350;2023-03-25T12:20:24;54080.63;;;-146.31;35.93
2036;BME280;23642;42.658;23.350;2023-03-25T12:22:59;54016.63;;;-146.31;36.07
2036;BME280;23642;42.658;23.350;2023-03-25T12:25:35;54049.66;;;-146.31;35.91
2036;BME280;23642;42.658;23.350;2023-03-25T12:28:43;54095.09;;;-146.31;35.77
2036;BME280;23642;42.658;23.350;2023-03-25T12:31:23;54084.75;;;-146.31;35.69
2036;BME280;23642;42.658;23.350;2023-03-25T12:34:05;54068.25;;;-146.31;35.27
2036;BME280;23642;42.658;23.350;2023-03-25T12:36:48;54105.41;;;-146.31;35.27
2036;BME280;23642;42.658;23.350;2023-03-25T12:39:40;54066.19;;;-146.31;35.24
2036;BME280;23642;42.658;23.350;2023-03-25T12:42:23;54072.38;;;-146.31;35.12
2036;BME280;23642;42.658;23.350;2023-03-25T12:45:02;54070.31;;;-146.31;35.32
2036;BME280;23642;42.658;23.350;2023-03-25T12:47:34;54088.88;;;-146.31;35.21
2036;BME280;23642;42.658;23.350;2023-03-25T12:50:19;54150.84;;;-146.31;35.17
2036;BME280;23642;42.658;23.350;2023-03-25T12:52:55;54218.97;;;-146.31;35.39
2036;BME280;23642;42.658;23.350;2023-03-25T12:55:39;54177.66;;;-146.31;35.47
2036;BME280;23642;42.658;23.350;2023-03-25T13:01:10;54241.69;;;-146.31;35.79
2036;BME280;23642;42.658;23.350;2023-03-25T13:03:57;54243.75;;;-146.31;35.92